createdAt,value
2022-10-25T00:01:57.827Z,100029.31
2022-10-25T00:03:59.577Z,100023.31
2022-10-25T00:06:01.824Z,100027.22
2022-10-25T00:08:03.519Z,100026.09
2022-10-25T00:10:06.339Z,99993.81
2022-10-25T00:12:08.799Z,100017.91
2022-10-25T00:14:15.870Z,100008.25
2022-10-25T00:16:21.063Z,100027.63
2022-10-25T00:18:23.370Z,100027.53
2022-10-25T00:20:25.311Z,100018.81
2022-10-25T00:22:29.305Z,100020.47
2022-10-25T00:24:31.237Z,100009.25
2022-10-25T00:26:34.483Z,100009.13
2022-10-25T00:28:36.284Z,100004.38
2022-10-25T00:30:38.263Z,100018.06
2022-10-25T00:32:39.997Z,100018.38
2022-10-25T00:34:41.841Z,100021.53
2022-10-25T00:36:43.729Z,100010.63
2022-10-25T00:38:46.340Z,100011.38
2022-10-25T00:40:48.202Z,100015.41
2022-10-25T00:42:50.175Z,99993.09
2022-10-25T00:44:53.600Z,100019.31
2022-10-25T00:46:55.585Z,100016.97
2022-10-25T00:49:10.746Z,100018.75
2022-10-25T00:51:12.521Z,100014.81
2022-10-25T00:53:20.373Z,100017.25
2022-10-25T00:55:26.147Z,100031.59
2022-10-25T00:57:34.600Z,100007.84
2022-10-25T00:59:37.436Z,100018.25
2022-10-25T01:01:39.640Z,99998.97
2022-10-25T01:03:44.564Z,100015.91
2022-10-25T01:05:47.226Z,99994.25
2022-10-25T01:07:49.463Z,100013.53
2022-10-25T01:09:51.495Z,100021.88
2022-10-25T01:11:53.167Z,100021.47
2022-10-25T01:13:56.400Z,100014.59
2022-10-25T01:16:06.944Z,100022.47
2022-10-25T01:18:17.616Z,100012.59
2022-10-25T01:20:57.725Z,100003.31
2022-10-25T01:23:19.437Z,100020.47
2022-10-25T01:25:45.090Z,100020.41
2022-10-25T01:28:08.253Z,100022.81
2022-10-25T01:30:22.523Z,100023.94
2022-10-25T01:32:35.043Z,100026.75
2022-10-25T01:35:02.504Z,100027.81
2022-10-25T01:37:17.880Z,100024.75
2022-10-25T01:39:31.184Z,100013.91
2022-10-25T01:41:53.017Z,100009.81
2022-10-25T01:44:13.952Z,100018.25
2022-10-25T01:46:25.736Z,100025.88
2022-10-25T01:48:43.470Z,100018.19
2022-10-25T01:50:49.045Z,100031.25
2022-10-25T01:52:52.390Z,100023.06
2022-10-25T01:54:54.300Z,100037.56
2022-10-25T01:57:21.016Z,100023.28
2022-10-25T01:59:34.296Z,100026.94
2022-10-25T02:01:57.532Z,100022.22
2022-10-25T02:04:44.033Z,100031.06
2022-10-25T02:07:10.973Z,100028.41
2022-10-25T02:09:33.092Z,100023.22
2022-10-25T02:11:36.443Z,100009.53
2022-10-25T02:13:41.011Z,100028.53
2022-10-25T02:16:07.916Z,100025.38
2022-10-25T02:18:15.792Z,100015.22
2022-10-25T02:20:22.584Z,100022.59
2022-10-25T02:22:28.815Z,100025.94
2022-10-25T02:24:31.972Z,100029.88
2022-10-25T02:26:35.496Z,100016.66
2022-10-25T02:28:40.276Z,100028.72
2022-10-25T02:30:44.024Z,100019.94
2022-10-25T02:32:45.965Z,100021.22
2022-10-25T02:34:49.206Z,100018.00
2022-10-25T02:36:53.107Z,100017.69
2022-10-25T02:38:55.633Z,100014.97
2022-10-25T02:41:00.151Z,100015.81
2022-10-25T02:43:02.075Z,100003.19
2022-10-25T02:45:04.273Z,100004.78
2022-10-25T02:47:06.043Z,100001.47
2022-10-25T02:49:07.732Z,100004.63
2022-10-25T02:51:11.571Z,99998.53
2022-10-25T02:53:13.241Z,100015.66
2022-10-25T02:55:14.984Z,100003.25
2022-10-25T02:57:16.912Z,100008.41
2022-10-25T02:59:22.549Z,99995.91
2022-10-25T03:01:25.252Z,100001.16
2022-10-25T03:03:28.051Z,100000.44
2022-10-25T03:05:29.688Z,99994.09
2022-10-25T03:07:31.355Z,99993.44
2022-10-25T03:09:33.199Z,99998.25
2022-10-25T03:11:34.926Z,99991.31
2022-10-25T03:13:36.653Z,99990.97
2022-10-25T03:15:38.538Z,99990.28
2022-10-25T03:17:40.187Z,99993.50
2022-10-25T03:19:42.312Z,99997.47
2022-10-25T03:21:44.221Z,99990.22
2022-10-25T03:23:45.881Z,99997.47
2022-10-25T03:25:53.485Z,99993.94
2022-10-25T03:27:56.238Z,100000.63
2022-10-25T03:29:57.856Z,100012.41
2022-10-25T03:31:59.531Z,100007.13
2022-10-25T03:34:01.452Z,100006.75
2022-10-25T03:36:03.352Z,100004.84
2022-10-25T03:38:05.841Z,100006.06
2022-10-25T03:40:08.249Z,100012.06
2022-10-25T03:42:10.319Z,100008.22
2022-10-25T03:44:11.965Z,100007.31
2022-10-25T03:46:14.091Z,99992.25
2022-10-25T03:48:15.756Z,100001.59
2022-10-25T03:50:18.052Z,99995.16
2022-10-25T03:52:20.059Z,99999.09
2022-10-25T03:54:24.386Z,99990.94
2022-10-25T03:56:28.632Z,100000.31
2022-10-25T03:58:30.606Z,100007.47
2022-10-25T04:00:32.477Z,100000.31
2022-10-25T04:02:34.317Z,99984.53
2022-10-25T04:04:36.715Z,99989.09
2022-10-25T04:06:38.475Z,99989.53
2022-10-25T04:08:40.316Z,99992.97
2022-10-25T04:10:42.247Z,99991.03
2022-10-25T04:12:43.940Z,99990.91
2022-10-25T04:14:45.609Z,99990.16
2022-10-25T04:16:47.524Z,99989.66
2022-10-25T04:18:53.044Z,99980.81
2022-10-25T04:20:54.701Z,99959.03
2022-10-25T04:22:57.366Z,99979.06
2022-10-25T04:24:59.167Z,99969.50
2022-10-25T04:27:00.819Z,99995.47
2022-10-25T04:29:04.368Z,99993.72
2022-10-25T04:31:06.017Z,99987.44
2022-10-25T04:33:07.933Z,99992.69
2022-10-25T04:35:11.027Z,99988.81
2022-10-25T04:37:12.640Z,99995.91
2022-10-25T04:39:15.186Z,99994.59
2022-10-25T04:41:17.986Z,99990.44
2022-10-25T04:43:19.636Z,99977.22
2022-10-25T04:45:21.390Z,99994.50
2022-10-25T04:47:23.291Z,99979.47
2022-10-25T04:49:25.152Z,99988.69
2022-10-25T04:51:27.023Z,99968.69
2022-10-25T04:53:29.022Z,99973.16
2022-10-25T04:55:31.508Z,99971.47
2022-10-25T04:57:33.575Z,99980.25
2022-10-25T04:59:35.464Z,99973.97
2022-10-25T05:01:37.437Z,99972.97
2022-10-25T05:03:39.999Z,99979.66
2022-10-25T05:05:41.940Z,99985.22
2022-10-25T05:07:43.643Z,99992.09
2022-10-25T05:09:47.425Z,99984.19
2022-10-25T05:11:49.623Z,99979.94
2022-10-25T05:13:51.325Z,99992.09
2022-10-25T05:15:58.639Z,99993.06
2022-10-25T05:18:01.421Z,99987.94
2022-10-25T05:20:03.583Z,99991.16
2022-10-25T05:22:05.259Z,99987.38
2022-10-25T05:24:07.251Z,99995.84
2022-10-25T05:26:08.959Z,100000.31
2022-10-25T05:28:10.781Z,100003.91
2022-10-25T05:30:12.861Z,99992.78
2022-10-25T05:32:14.516Z,99997.66
2022-10-25T05:34:16.243Z,100007.31
2022-10-25T05:36:18.730Z,100016.59
2022-10-25T05:38:20.497Z,100023.41
2022-10-25T05:40:22.190Z,100019.75
2022-10-25T05:42:24.228Z,100015.41
2022-10-25T05:44:25.925Z,100015.63
2022-10-25T05:46:27.563Z,100023.84
2022-10-25T05:48:29.489Z,100005.25
2022-10-25T05:50:31.245Z,100020.25
2022-10-25T05:52:33.013Z,100026.75
2022-10-25T05:54:35.124Z,100019.03
2022-10-25T05:56:37.586Z,100032.31
2022-10-25T05:58:39.825Z,100031.81
2022-10-25T06:00:41.918Z,100029.72
2022-10-25T06:02:43.747Z,100036.44
2022-10-25T06:04:50.258Z,100036.09
2022-10-25T06:06:54.235Z,100027.22
2022-10-25T06:09:00.828Z,100034.59
2022-10-25T06:11:05.403Z,100034.16
2022-10-25T06:13:07.240Z,100044.97
2022-10-25T06:15:09.567Z,100043.78
2022-10-25T06:17:12.662Z,100040.28
2022-10-25T06:19:14.571Z,100039.19
2022-10-25T06:21:21.852Z,100039.28
2022-10-25T06:23:23.534Z,100023.06
2022-10-25T06:25:25.360Z,100034.91
2022-10-25T06:27:27.274Z,100037.75
2022-10-25T06:29:29.101Z,100038.56
2022-10-25T06:31:32.286Z,100042.56
2022-10-25T06:33:34.336Z,100039.78
2022-10-25T06:35:36.148Z,100030.31
2022-10-25T06:37:38.009Z,100041.31
2022-10-25T06:39:39.627Z,100027.41
2022-10-25T06:41:41.610Z,100042.28
2022-10-25T06:43:44.385Z,100044.28
2022-10-25T06:45:46.045Z,100035.06
2022-10-25T06:47:47.697Z,100042.69
2022-10-25T06:49:49.553Z,100033.06
2022-10-25T06:51:51.324Z,100027.88
2022-10-25T06:53:54.930Z,100030.28
2022-10-25T06:56:09.330Z,100023.44
2022-10-25T06:58:12.288Z,100035.84
2022-10-25T07:00:14.424Z,100045.06
2022-10-25T07:02:16.515Z,100026.94
2022-10-25T07:04:18.327Z,100044.25
2022-10-25T07:06:27.818Z,100035.06
2022-10-25T07:08:29.836Z,100029.41
2022-10-25T07:10:31.528Z,100028.25
2022-10-25T07:12:38.004Z,100040.69
2022-10-25T07:14:39.974Z,100046.88
2022-10-25T07:16:41.645Z,100035.31
2022-10-25T07:18:44.302Z,100035.38
2022-10-25T07:20:48.494Z,100033.56
2022-10-25T07:22:50.421Z,100030.19
2022-10-25T07:24:52.136Z,100026.28
2022-10-25T07:26:54.261Z,100027.41
2022-10-25T07:28:57.884Z,100032.78
2022-10-25T07:30:59.582Z,100032.44
2022-10-25T07:33:03.228Z,100022.81
2022-10-25T07:35:05.511Z,100025.69
2022-10-25T07:37:07.227Z,100010.50
2022-10-25T07:39:09.348Z,100001.03
2022-10-25T07:41:12.193Z,100020.44
2022-10-25T07:43:14.165Z,100022.25
2022-10-25T07:45:18.718Z,100026.94
2022-10-25T07:47:24.317Z,100021.63
2022-10-25T07:49:26.142Z,100036.97
2022-10-25T07:51:27.915Z,100013.22
2022-10-25T07:53:29.553Z,100028.31
2022-10-25T07:55:31.679Z,100020.16
2022-10-25T07:57:33.464Z,100018.50
2022-10-25T07:59:35.325Z,100026.97
2022-10-25T08:01:37.655Z,100018.28
2022-10-25T08:03:39.492Z,100026.13
2022-10-25T08:05:46.502Z,100015.41
2022-10-25T08:07:50.329Z,100010.78
2022-10-25T08:09:51.994Z,100033.75
2022-10-25T08:11:54.664Z,99982.16
2022-10-25T08:13:56.438Z,100037.84
2022-10-25T08:15:58.371Z,100027.06
2022-10-25T08:18:01.804Z,100034.69
2022-10-25T08:20:04.575Z,100016.28
2022-10-25T08:22:06.245Z,100034.28
2022-10-25T08:24:08.359Z,100042.25
2022-10-25T08:26:10.651Z,100034.63
2022-10-25T08:28:12.624Z,100034.59
2022-10-25T08:30:14.445Z,100040.69
2022-10-25T08:32:16.466Z,100004.63
2022-10-25T08:34:18.200Z,100005.44
2022-10-25T08:36:20.369Z,100009.44
2022-10-25T08:38:22.313Z,100031.88
2022-10-25T08:40:37.769Z,100042.28
2022-10-25T08:43:07.667Z,100045.81
2022-10-25T08:45:28.812Z,100036.91
2022-10-25T08:47:39.349Z,100052.47
2022-10-25T08:49:55.527Z,100042.06
2022-10-25T08:51:59.400Z,100050.03
2022-10-25T08:54:06.397Z,100041.63
2022-10-25T08:56:17.722Z,100059.31
2022-10-25T08:58:28.435Z,100066.97
2022-10-25T09:00:36.612Z,100052.56
2022-10-25T09:02:53.557Z,100057.28
2022-10-25T09:04:55.478Z,100044.56
2022-10-25T09:07:29.140Z,100045.34
2022-10-25T09:09:33.806Z,100057.34
2022-10-25T09:12:00.720Z,100049.34
2022-10-25T09:14:22.270Z,100061.34
2022-10-25T09:16:51.385Z,100058.16
2022-10-25T09:18:55.355Z,100046.13
2022-10-25T09:20:58.640Z,100048.13
2022-10-25T09:23:15.437Z,100069.38
2022-10-25T09:25:25.891Z,100065.38
2022-10-25T09:30:37.873Z,100060.69
2022-10-25T09:32:45.456Z,100057.50
2022-10-25T09:34:47.850Z,100057.13
2022-10-25T09:36:55.468Z,100059.50
2022-10-25T09:39:03.098Z,100061.53
2022-10-25T09:41:19.260Z,100052.66
2022-10-25T09:43:28.066Z,100056.63
2022-10-25T09:45:44.132Z,100055.09
2022-10-25T09:48:03.041Z,100054.28
2022-10-25T09:50:11.178Z,100060.31
2022-10-25T09:52:30.280Z,100053.03
2022-10-25T09:54:50.078Z,100063.09
2022-10-25T09:56:51.966Z,100059.91
2022-10-25T09:58:54.126Z,100054.69
2022-10-25T10:01:09.149Z,100042.25
2022-10-25T10:03:13.124Z,100065.44
2022-10-25T10:05:17.745Z,100072.22
2022-10-25T10:07:22.777Z,100064.16
2022-10-25T10:09:28.632Z,100052.13
2022-10-25T10:11:32.575Z,100058.47
2022-10-25T10:13:40.360Z,100070.50
2022-10-25T10:15:51.488Z,100066.53
2022-10-25T10:18:26.829Z,100071.81
2022-10-25T10:20:28.740Z,100056.56
2022-10-25T10:22:30.726Z,100064.53
2022-10-25T10:24:36.149Z,100058.19
2022-10-25T10:26:47.604Z,100053.34
2022-10-25T10:28:53.591Z,100058.94
2022-10-25T10:30:58.566Z,100038.13
2022-10-25T10:33:02.088Z,100051.69
2022-10-25T10:35:06.972Z,100054.06
2022-10-25T10:37:20.416Z,100055.66
2022-10-25T10:39:23.579Z,100056.03
2022-10-25T10:41:25.381Z,100063.16
2022-10-25T10:43:30.718Z,100057.69
2022-10-25T10:45:34.079Z,100064.16
2022-10-25T10:47:50.997Z,100071.75
2022-10-25T10:49:53.261Z,100071.78
2022-10-25T10:51:56.758Z,100067.72
2022-10-25T10:53:58.659Z,100058.06
2022-10-25T10:56:02.948Z,100050.13
2022-10-25T10:58:18.595Z,100043.66
2022-10-25T11:00:27.621Z,100058.91
2022-10-25T11:02:42.734Z,100053.28
2022-10-25T11:04:49.594Z,100053.22
2022-10-25T11:06:51.464Z,100046.13
2022-10-25T11:09:19.418Z,100063.78
2022-10-25T11:11:23.086Z,100065.44
2022-10-25T11:13:25.857Z,100043.38
2022-10-25T11:15:30.183Z,100048.63
2022-10-25T11:17:36.653Z,100065.03
2022-10-25T11:19:41.565Z,100070.31
2022-10-25T11:21:58.863Z,100064.31
2022-10-25T11:24:29.673Z,100061.91
2022-10-25T11:26:58.163Z,100053.50
2022-10-25T11:29:25.696Z,100062.28
2022-10-25T11:31:46.220Z,100064.31
2022-10-25T11:34:13.729Z,100048.31
2022-10-25T11:36:28.288Z,100063.94
2022-10-25T11:38:36.533Z,100062.31
2022-10-25T11:40:52.699Z,100048.69
2022-10-25T11:42:55.232Z,100065.84
2022-10-25T11:45:19.028Z,100071.84
2022-10-25T11:47:56.034Z,100077.84
2022-10-25T11:50:39.982Z,100073.44
2022-10-25T11:53:10.273Z,100076.59
2022-10-25T11:55:39.584Z,100082.16
2022-10-25T11:58:19.402Z,100070.09
2022-10-25T12:00:37.756Z,100088.50
2022-10-25T12:02:54.884Z,100096.44
2022-10-25T12:05:20.089Z,100090.53
2022-10-25T12:07:25.094Z,100091.78
2022-10-25T12:09:43.882Z,100087.78
2022-10-25T12:11:52.433Z,100074.94
2022-10-25T12:14:06.400Z,100077.31
2022-10-25T12:16:14.420Z,100086.22
2022-10-25T12:18:29.465Z,100069.41
2022-10-25T12:20:32.773Z,100070.19
2022-10-25T12:22:39.869Z,100075.38
2022-10-25T12:24:52.796Z,100054.56
2022-10-25T12:26:55.608Z,100089.88
2022-10-25T12:29:03.036Z,100081.09
2022-10-25T12:31:25.322Z,100083.50
2022-10-25T12:33:41.195Z,100078.28
2022-10-25T12:35:49.557Z,100083.13
2022-10-25T12:38:06.973Z,100079.91
2022-10-25T12:40:18.620Z,100055.09
2022-10-25T12:42:34.758Z,100077.53
2022-10-25T12:44:56.527Z,100077.56
2022-10-25T12:47:23.089Z,100079.16
2022-10-25T12:49:57.290Z,100081.13
2022-10-25T12:52:05.399Z,100079.91
2022-10-25T12:54:20.328Z,100080.72
2022-10-25T12:56:46.749Z,100083.53
2022-10-25T12:59:43.434Z,100085.53
2022-10-25T13:02:04.873Z,100086.31
2022-10-25T13:04:25.748Z,100083.03
2022-10-25T13:06:48.171Z,100088.25
2022-10-25T13:08:50.757Z,100088.63
2022-10-25T13:11:00.796Z,100089.44
2022-10-25T13:13:14.431Z,100091.41
2022-10-25T13:15:19.727Z,100084.19
2022-10-25T13:17:21.918Z,100099.44
2022-10-25T13:19:54.078Z,100090.22
2022-10-25T13:21:55.175Z,100089.88
2022-10-25T13:23:59.974Z,100081.81
2022-10-25T13:26:08.275Z,100102.94
2022-10-25T13:28:16.199Z,100099.34
2022-10-25T13:32:42.404Z,100098.56
2022-10-25T13:34:44.745Z,100096.16
2022-10-25T13:36:54.121Z,100093.38
2022-10-25T13:39:05.491Z,100082.63
2022-10-25T13:41:10.260Z,100094.25
2022-10-25T13:43:20.699Z,100095.00
2022-10-25T13:45:43.002Z,100084.25
2022-10-25T13:47:54.221Z,100092.28
2022-10-25T13:49:56.722Z,100105.06
2022-10-25T13:52:05.779Z,100105.06
2022-10-25T13:54:12.047Z,100106.63
2022-10-25T13:56:33.717Z,100110.19
2022-10-25T13:58:45.018Z,100110.50
2022-10-25T14:00:52.288Z,100101.31
2022-10-25T14:03:05.818Z,100114.50
2022-10-25T14:05:10.909Z,100104.09
2022-10-25T14:07:51.466Z,100116.41
2022-10-25T14:09:56.093Z,100116.38
2022-10-25T14:12:00.917Z,100117.59
2022-10-25T14:14:12.209Z,100119.13
2022-10-25T14:16:25.927Z,100124.28
2022-10-25T14:18:30.155Z,100073.72
2022-10-25T14:20:32.686Z,100115.38
2022-10-25T14:22:42.076Z,100127.72
2022-10-25T14:24:48.738Z,100118.09
2022-10-25T14:26:58.913Z,100093.59
2022-10-25T14:29:20.428Z,100111.38
2022-10-25T14:31:22.490Z,100124.94
2022-10-25T14:33:28.204Z,100132.91
2022-10-25T14:35:46.987Z,100125.66
2022-10-25T14:37:49.174Z,100140.75
2022-10-25T14:39:52.954Z,100142.38
2022-10-25T14:42:02.351Z,100149.06
2022-10-25T14:44:20.858Z,100137.78
2022-10-25T14:46:25.621Z,100137.22
2022-10-25T14:48:28.334Z,100148.13
2022-10-25T14:50:30.178Z,100144.06
2022-10-25T14:52:32.359Z,100146.78
2022-10-25T14:54:36.490Z,100143.19
2022-10-25T14:57:00.812Z,100143.88
2022-10-25T14:59:05.150Z,100154.28
2022-10-25T15:01:10.481Z,100126.09
2022-10-25T15:03:13.674Z,100133.78
2022-10-25T15:05:24.156Z,100145.00
2022-10-25T15:07:44.053Z,100140.53
2022-10-25T15:09:50.474Z,100154.06
2022-10-25T15:12:05.954Z,100160.50
2022-10-25T15:14:21.971Z,100148.16
2022-10-25T15:16:33.095Z,100157.81
2022-10-25T15:18:38.443Z,100150.59
2022-10-25T15:20:40.777Z,100141.38
2022-10-25T15:22:45.540Z,100153.44
2022-10-25T15:24:49.050Z,100153.06
2022-10-25T15:27:02.432Z,100147.88
2022-10-25T15:29:04.344Z,100149.06
2022-10-25T15:31:07.452Z,100153.88
2022-10-25T15:33:12.996Z,100149.91
2022-10-25T15:35:24.369Z,100149.00
2022-10-25T15:37:29.775Z,100161.19
2022-10-25T15:39:35.426Z,100150.09
2022-10-25T15:41:38.592Z,100157.38
2022-10-25T15:43:40.474Z,100155.69
2022-10-25T15:45:44.166Z,100176.13
2022-10-25T15:47:47.470Z,100142.28
2022-10-25T15:49:53.448Z,100172.38
2022-10-25T15:51:55.820Z,100180.63
2022-10-25T15:53:57.725Z,100172.63
2022-10-25T15:56:01.841Z,100174.25
2022-10-25T15:58:09.634Z,100145.25
2022-10-25T16:00:18.160Z,100159.00
2022-10-25T16:02:27.208Z,100183.94
2022-10-25T16:04:29.781Z,100181.78
2022-10-25T16:06:32.156Z,100189.72
2022-10-25T16:10:58.135Z,100181.22
2022-10-25T16:13:05.942Z,100192.84
2022-10-25T16:15:14.237Z,100206.38
2022-10-25T16:17:16.343Z,100193.88
2022-10-25T16:19:20.346Z,100209.13
2022-10-25T16:21:22.651Z,100212.75
2022-10-25T16:23:25.951Z,100209.50
2022-10-25T16:25:30.606Z,100210.41
2022-10-25T16:27:35.131Z,100219.13
2022-10-25T16:29:37.233Z,100218.41
2022-10-25T16:31:39.161Z,100217.00
2022-10-25T16:33:42.093Z,100219.78
2022-10-25T16:35:44.304Z,100221.25
2022-10-25T16:37:46.341Z,100210.41
2022-10-25T16:39:48.579Z,100211.69
2022-10-25T16:41:52.654Z,100225.38
2022-10-25T16:43:55.430Z,100209.19
2022-10-25T16:45:57.396Z,100216.31
2022-10-25T16:48:00.395Z,100213.44
2022-10-25T16:50:02.663Z,100220.38
2022-10-25T16:52:06.238Z,100223.81
2022-10-25T16:54:08.736Z,100227.09
2022-10-25T16:56:11.625Z,100222.06
2022-10-25T16:58:13.535Z,100208.13
2022-10-25T17:00:16.354Z,100235.31
2022-10-25T17:02:21.625Z,100228.72
2022-10-25T17:04:23.965Z,100221.25
2022-10-25T17:06:40.708Z,100216.47
2022-10-25T17:08:44.034Z,100232.53
2022-10-25T17:10:51.281Z,100233.81
2022-10-25T17:13:03.994Z,100231.50
2022-10-25T17:15:08.779Z,100223.06
2022-10-25T17:17:10.956Z,100227.84
2022-10-25T17:19:13.535Z,100232.47
2022-10-25T17:21:17.092Z,100234.88
2022-10-25T17:23:19.665Z,100230.44
2022-10-25T17:25:21.817Z,100246.78
2022-10-25T17:27:23.654Z,100237.38
2022-10-25T17:29:25.596Z,100250.34
2022-10-25T17:31:32.758Z,100249.13
2022-10-25T17:33:34.671Z,100237.19
2022-10-25T17:35:41.251Z,100258.06
2022-10-25T17:37:44.556Z,100245.75
2022-10-25T17:39:46.886Z,100259.84
2022-10-25T17:41:48.735Z,100238.16
2022-10-25T17:43:54.495Z,100257.06
2022-10-25T17:46:03.481Z,100259.91
2022-10-25T17:48:05.979Z,100241.38
2022-10-25T17:50:12.870Z,100256.00
2022-10-25T17:52:14.849Z,100258.22
2022-10-25T17:54:17.917Z,100264.19
2022-10-25T17:56:21.956Z,100265.06
2022-10-25T17:58:24.053Z,100259.47
2022-10-25T18:00:25.891Z,100248.69
2022-10-25T18:02:28.295Z,100253.50
2022-10-25T18:04:40.762Z,100258.16
2022-10-25T18:06:52.219Z,100245.75
2022-10-25T18:08:59.358Z,100259.91
2022-10-25T18:11:08.287Z,100255.84
2022-10-25T18:13:10.466Z,100258.06
2022-10-25T18:15:12.721Z,100254.91
2022-10-25T18:17:14.770Z,100261.66
2022-10-25T18:19:16.815Z,100250.56
2022-10-25T18:21:19.022Z,100255.69
2022-10-25T18:23:21.007Z,100262.63
2022-10-25T18:25:23.230Z,100249.59
2022-10-25T18:27:25.387Z,100256.63
2022-10-25T18:29:27.577Z,100252.53
2022-10-25T18:31:29.590Z,100242.53
2022-10-25T18:33:33.465Z,100268.28
2022-10-25T18:35:35.527Z,100261.91
2022-10-25T18:37:38.877Z,100255.81
2022-10-25T18:39:41.162Z,100260.38
2022-10-25T18:41:44.313Z,100255.00
2022-10-25T18:43:48.435Z,100255.38
2022-10-25T18:45:55.983Z,100254.50
2022-10-25T18:47:59.161Z,100251.72
2022-10-25T18:50:01.008Z,100270.91
2022-10-25T18:52:03.653Z,100249.25
2022-10-25T18:54:05.514Z,100259.88
2022-10-25T18:56:12.423Z,100272.16
2022-10-25T18:58:15.431Z,100260.03
2022-10-25T19:00:17.653Z,100270.66
2022-10-25T19:02:19.758Z,100262.25
2022-10-25T19:04:22.994Z,100261.75
2022-10-25T19:06:25.333Z,100250.28
2022-10-25T19:08:27.188Z,100251.78
2022-10-25T19:10:29.457Z,100255.44
2022-10-25T19:12:31.321Z,100254.56
2022-10-25T19:14:33.199Z,100263.78
2022-10-25T19:16:40.828Z,100257.78
2022-10-25T19:18:42.759Z,100260.94
2022-10-25T19:20:46.812Z,100264.16
2022-10-25T19:22:49.628Z,100273.91
2022-10-25T19:24:51.475Z,100278.31
2022-10-25T19:26:53.637Z,100273.09
2022-10-25T19:29:01.231Z,100271.34
2022-10-25T19:31:08.720Z,100261.59
2022-10-25T19:33:11.870Z,100279.66
2022-10-25T19:35:14.490Z,100268.22
2022-10-25T19:37:18.126Z,100287.31
2022-10-25T19:39:20.131Z,100281.91
2022-10-25T19:41:24.343Z,100283.63
2022-10-25T19:43:26.748Z,100266.13
2022-10-25T19:45:29.839Z,100287.13
2022-10-25T19:47:35.391Z,100287.34
2022-10-25T19:49:38.667Z,100295.47
2022-10-25T19:51:41.430Z,100257.22
2022-10-25T19:53:43.988Z,100290.16
2022-10-25T19:55:58.179Z,100271.91
2022-10-25T19:58:02.057Z,100295.13
2022-10-25T20:00:07.629Z,100297.31
2022-10-25T20:02:13.098Z,100307.91
2022-10-25T20:04:15.173Z,100302.53
2022-10-25T20:06:23.518Z,100310.16
2022-10-25T20:08:27.090Z,100288.91
2022-10-25T20:10:28.999Z,100299.91
2022-10-25T20:12:33.967Z,100309.72
2022-10-25T20:14:37.834Z,100308.84
2022-10-25T20:16:39.843Z,100313.16
2022-10-25T20:18:42.841Z,100318.81
2022-10-25T20:20:44.949Z,100299.66
2022-10-25T20:22:46.769Z,100322.13
2022-10-25T20:24:49.009Z,100309.06
2022-10-25T20:26:53.293Z,100305.03
2022-10-25T20:28:57.207Z,100310.81
2022-10-25T20:31:03.435Z,100321.00
2022-10-25T20:33:06.879Z,100319.56
2022-10-25T20:35:08.778Z,100327.84
2022-10-25T20:37:11.023Z,100310.47
2022-10-25T20:39:13.600Z,100328.19
2022-10-25T20:41:18.468Z,100312.38
2022-10-25T20:43:20.572Z,100321.16
2022-10-25T20:45:22.440Z,100322.53
2022-10-25T20:47:24.259Z,100328.91
2022-10-25T20:49:26.836Z,100323.47
2022-10-25T20:51:29.165Z,100331.97
2022-10-25T20:53:31.144Z,100338.81
2022-10-25T20:55:33.434Z,100318.34
2022-10-25T20:57:37.379Z,100331.47
2022-10-25T20:59:39.353Z,100332.38
2022-10-25T21:01:41.635Z,100343.75
2022-10-25T21:03:43.692Z,100328.34
2022-10-25T21:05:46.334Z,100333.28
2022-10-25T21:08:21.331Z,100332.22
2022-10-25T21:10:23.338Z,100328.44
2022-10-25T21:12:26.688Z,100327.91
2022-10-25T21:14:28.597Z,100310.69
2022-10-25T21:16:30.452Z,100340.00
2022-10-25T21:18:33.114Z,100308.63
2022-10-25T21:20:37.410Z,100334.38
2022-10-25T21:22:41.211Z,100331.31
2022-10-25T21:24:44.287Z,100314.19
2022-10-25T21:26:47.586Z,100306.13
2022-10-25T21:28:49.564Z,100349.53
2022-10-25T21:30:52.101Z,100331.66
2022-10-25T21:32:53.978Z,100339.66
2022-10-25T21:34:56.205Z,100336.09
2022-10-25T21:36:58.632Z,100348.56
2022-10-25T21:39:00.760Z,100347.66
2022-10-25T21:41:11.692Z,100341.66
2022-10-25T21:43:13.860Z,100335.09
2022-10-25T21:45:15.831Z,100356.56
2022-10-25T21:47:17.700Z,100348.91
2022-10-25T21:49:20.003Z,100336.72
2022-10-25T21:51:24.417Z,100357.09
2022-10-25T21:53:26.310Z,100351.19
2022-10-25T21:55:28.932Z,100325.94
2022-10-25T21:57:30.786Z,100317.88
2022-10-25T21:59:32.807Z,100341.41
2022-10-25T22:01:35.244Z,100304.59
2022-10-25T22:03:37.442Z,100353.31
2022-10-25T22:05:43.355Z,100349.19
2022-10-25T22:07:45.677Z,100342.00
2022-10-25T22:09:47.702Z,100343.97
2022-10-25T22:11:51.755Z,100351.53
2022-10-25T22:13:56.342Z,100354.13
2022-10-25T22:16:05.541Z,100354.75
2022-10-25T22:18:07.400Z,100338.97
2022-10-25T22:20:10.310Z,100340.22
2022-10-25T22:22:12.162Z,100344.72
2022-10-25T22:24:14.047Z,100348.03
2022-10-25T22:26:18.472Z,100362.91
2022-10-25T22:28:20.320Z,100365.78
2022-10-25T22:30:22.214Z,100352.50
2022-10-25T22:32:24.482Z,100366.50
2022-10-25T22:34:27.666Z,100343.97
2022-10-25T22:36:33.051Z,100358.53
2022-10-25T22:38:35.859Z,100358.97
2022-10-25T22:40:37.783Z,100361.44
2022-10-25T22:42:39.664Z,100363.78
2022-10-25T22:44:41.800Z,100344.41
2022-10-25T22:46:43.727Z,100345.63
2022-10-25T22:48:48.826Z,100360.91
2022-10-25T22:50:52.151Z,100361.38
2022-10-25T22:52:53.948Z,100366.28
2022-10-25T22:54:55.967Z,100356.72
2022-10-25T22:56:58.196Z,100358.03
2022-10-25T22:59:02.467Z,100358.72
2022-10-25T23:01:06.458Z,100371.06
2022-10-25T23:03:08.639Z,100375.19
2022-10-25T23:05:10.548Z,100381.84
2022-10-25T23:07:12.509Z,100363.66
2022-10-25T23:09:14.740Z,100366.22
2022-10-25T23:11:19.025Z,100376.81
2022-10-25T23:13:20.824Z,100365.97
2022-10-25T23:15:23.051Z,100363.66
2022-10-25T23:17:25.204Z,100374.78
2022-10-25T23:19:27.220Z,100376.81
2022-10-25T23:21:31.023Z,100370.81
2022-10-25T23:23:35.620Z,100371.97
2022-10-25T23:25:37.511Z,100363.28
2022-10-25T23:27:39.619Z,100374.41
2022-10-25T23:29:41.475Z,100379.72
2022-10-25T23:31:43.297Z,100366.53
2022-10-25T23:33:45.912Z,100376.38
2022-10-25T23:35:47.711Z,100387.00
2022-10-25T23:37:50.119Z,100362.59
2022-10-25T23:39:52.380Z,100382.69
2022-10-25T23:41:56.977Z,100381.34
2022-10-25T23:43:59.138Z,100382.19
2022-10-25T23:46:01.727Z,100380.91
2022-10-25T23:48:03.617Z,100371.66
2022-10-25T23:50:05.999Z,100382.31
2022-10-25T23:52:08.146Z,100377.88
2022-10-25T23:54:10.078Z,100384.81
2022-10-25T23:56:13.240Z,100389.69
2022-10-25T23:58:15.793Z,100390.38
